Terminal Aerodrome Forecast
Issued by NWS

Home | Current Version | Previous Version | Graphics & Text | Print | Product List | Glossary On
Versions: 1 2 3 4 5 6 7 8 9 10 11 12 13 14 15 16 17 18 19 20 21 22 23 24 25 26
608
FTUS43 KTOP 041608 AAB
TAFFOE
TAF AMD
KFOE 041608Z 0416/0512 26008KT P6SM BKN009 BKN015
      TEMPO 0416/0419 SCT009 BKN012
     FM041900 26008KT P6SM BKN020
     FM042000 20006KT P6SM SKC=

USA.gov is the U.S. government's official web portal to all federal, state and local government web resources and services.